Time;durP1;ratioP1;P1;durP2;ratioP2;P2;SDS_P1;SDS_P2;PMS_P1;PMS_P2;Temp;Humidity;BMP_temperature;BMP_pressure;BME280_temperature;BME280_humidity;BME280_pressure;Samples;Min_cycle;Max_cycle;Signal;HPM_P1;HPM_P2
2022/05/04 00:00:24;;;;;;;;;;;;;;;13.74;53.53;100790.03;4998441;28;7057;-76
2022/05/04 00:02:50;;;;;;;;;;;;;;;13.72;53.66;100789.09;4999911;28;6880;-76
2022/05/04 00:05:16;;;;;;;;;;;;;;;13.70;53.31;100787.25;4983237;28;6972;-76
2022/05/04 00:07:41;;;;;;;;;;;;;;;13.68;52.74;100791.47;4995409;28;7129;-76
2022/05/04 00:10:08;;;;;;;;;;;;;;;13.66;53.22;100785.34;5001259;28;6795;-76
2022/05/04 00:12:34;;;;;;;;;;;;;;;13.64;53.58;100789.56;4999305;28;6796;-76
2022/05/04 00:15:01;;;;;;;;;;;;;;;13.61;53.62;100790.31;5000073;28;6788;-76
2022/05/04 00:17:26;;;;;;;;;;;;;;;13.59;53.78;100786.81;4993381;28;6820;-76
2022/05/04 00:19:52;;;;;;;;;;;;;;;13.56;53.58;100782.41;4979694;28;6973;-76
2022/05/04 00:22:20;;;;;;;;;;;;;;;13.54;53.47;100783.16;5002450;28;10224;-76
2022/05/04 00:24:46;;;;;;;;;;;;;;;13.51;53.59;100788.16;4994471;28;6804;-76
2022/05/04 00:27:15;;;;;;;;;;;;;;;13.50;53.50;100782.16;5001588;28;7150;-76
2022/05/04 00:29:44;;;;;;;;;;;;;;;13.46;53.91;100778.56;5000963;28;7034;-76
2022/05/04 00:32:15;;;;;;;;;;;;;;;13.44;53.44;100784.44;5000507;28;7210;-76
2022/05/04 00:34:41;;;;;;;;;;;;;;;13.41;54.41;100777.44;4996124;28;6884;-76
2022/05/04 00:37:07;;;;;;;;;;;;;;;13.38;53.64;100785.06;5001492;28;7745;-76
2022/05/04 00:39:34;;;;;;;;;;;;;;;13.37;53.26;100777.25;5001095;28;6803;-76
2022/05/04 00:42:13;;;;;;;;;;;;;;;13.33;53.61;100774.56;4982551;28;6903;-76
2022/05/04 00:44:41;;;;;;;;;;;;;;;13.30;53.54;100776.13;5002054;28;6816;-76
2022/05/04 00:47:08;;;;;;;;;;;;;;;13.28;53.28;100777.75;4998594;28;7093;-76
2022/05/04 00:49:35;;;;;;;;;;;;;;;13.26;53.36;100779.38;4982761;28;6969;-76
2022/05/04 00:52:05;;;;;;;;;;;;;;;13.22;53.66;100783.50;4994904;28;7011;-76
2022/05/04 00:54:33;;;;;;;;;;;;;;;13.20;53.50;100780.00;4991858;28;7118;-76
2022/05/04 00:57:00;;;;;;;;;;;;;;;13.16;53.34;100776.41;4992776;28;6815;-76
2022/05/04 00:59:27;;;;;;;;;;;;;;;13.12;53.48;100782.22;4987958;28;7128;-76
2022/05/04 01:01:53;;;;;;;;;;;;;;;13.08;54.34;100775.19;4979269;28;6808;-76
2022/05/04 01:04:19;;;;;;;;;;;;;;;13.05;54.32;100780.22;4982720;28;6866;-76
2022/05/04 01:06:46;;;;;;;;;;;;;;;13.02;54.35;100775.81;4974816;28;7035;-76
2022/05/04 01:09:12;;;;;;;;;;;;;;;12.99;54.28;100773.13;4981424;28;7610;-76
2022/05/04 01:11:38;;;;;;;;;;;;;;;12.97;54.63;100776.41;4994714;28;6973;-76
2022/05/04 01:14:07;;;;;;;;;;;;;;;12.94;54.27;100774.59;5001440;28;6799;-76
2022/05/04 01:16:35;;;;;;;;;;;;;;;12.90;54.04;100775.28;4984530;28;6879;-76
2022/05/04 01:19:02;;;;;;;;;;;;;;;12.87;53.87;100776.00;4983311;28;6812;-76
2022/05/04 01:21:28;;;;;;;;;;;;;;;12.84;54.62;100777.56;4999846;28;7904;-76
2022/05/04 01:23:54;;;;;;;;;;;;;;;12.80;54.56;100776.53;5001196;28;6831;-76
2022/05/04 01:26:21;;;;;;;;;;;;;;;12.77;54.07;100779.00;4976746;28;7230;-76
2022/05/04 01:28:47;;;;;;;;;;;;;;;12.74;54.39;100777.16;5002652;28;6820;-76
2022/05/04 01:31:13;;;;;;;;;;;;;;;12.72;54.05;100778.78;4999742;28;7061;-76
2022/05/04 01:33:39;;;;;;;;;;;;;;;12.69;54.75;100775.19;5003583;28;6812;-76
2022/05/04 01:36:07;;;;;;;;;;;;;;;12.65;54.04;100774.16;5000452;28;6804;-76
2022/05/04 01:38:34;;;;;;;;;;;;;;;12.62;54.09;100774.91;4999106;28;7133;-76
2022/05/04 01:41:00;;;;;;;;;;;;;;;12.56;54.62;100766.91;4982196;28;6978;-76
2022/05/04 01:43:26;;;;;;;;;;;;;;;12.55;54.13;100771.97;4992032;28;7018;-76
2022/05/04 01:45:52;;;;;;;;;;;;;;;12.51;54.53;100770.97;4997217;28;6995;-76
2022/05/04 01:48:19;;;;;;;;;;;;;;;12.49;54.12;100775.16;4999322;28;6792;-76
2022/05/04 01:50:45;;;;;;;;;;;;;;;12.46;54.44;100778.47;4984534;28;7872;-76
2022/05/04 01:53:11;;;;;;;;;;;;;;;12.45;54.15;100780.94;4998776;28;6950;-76
2022/05/04 01:55:37;;;;;;;;;;;;;;;12.41;54.66;100779.94;4992593;28;7916;-76
2022/05/04 01:58:04;;;;;;;;;;;;;;;12.38;54.70;100786.63;5000531;28;6885;-76
2022/05/04 02:00:30;;;;;;;;;;;;;;;12.35;54.48;100785.66;5003700;28;6823;-76
2022/05/04 02:02:58;;;;;;;;;;;;;;;12.33;54.37;100787.28;4981224;28;6894;-76
2022/05/04 02:05:24;;;;;;;;;;;;;;;12.31;54.99;100783.75;5004568;28;6796;-76
2022/05/04 02:07:50;;;;;;;;;;;;;;;12.30;54.60;100786.25;5003957;28;6800;-76
2022/05/04 02:10:16;;;;;;;;;;;;;;;12.27;54.49;100791.25;4995986;28;6812;-76
2022/05/04 02:12:43;;;;;;;;;;;;;;;12.22;54.13;100779.09;5003830;28;6923;-76
2022/05/04 02:15:11;;;;;;;;;;;;;;;12.21;54.81;100782.44;5000443;28;6827;-76
2022/05/04 02:17:38;;;;;;;;;;;;;;;12.19;54.78;100778.06;5001157;28;7868;-76
2022/05/04 02:20:05;;;;;;;;;;;;;;;12.18;54.64;100781.44;4989671;28;7216;-76
2022/05/04 02:22:31;;;;;;;;;;;;;;;12.17;54.28;100774.53;4996641;28;6800;-76
2022/05/04 02:24:57;;;;;;;;;;;;;;;12.16;54.56;100785.59;5003661;28;6888;-76
2022/05/04 02:27:23;;;;;;;;;;;;;;;12.14;54.37;100780.41;5003262;28;6852;-76
2022/05/04 02:29:49;;;;;;;;;;;;;;;12.13;54.51;100785.47;5006647;28;6876;-76
2022/05/04 02:32:15;;;;;;;;;;;;;;;12.10;54.33;100783.63;5000723;28;7023;-76
2022/05/04 02:40:11;;;;;;;;;;;;;;;12.02;54.50;100779.75;5002541;28;7043;-76
2022/05/04 02:42:37;;;;;;;;;;;;;;;12.00;54.27;100779.72;5000404;28;6819;-76
2022/05/04 02:45:05;;;;;;;;;;;;;;;11.97;54.39;100776.97;5019657;28;6787;-76
2022/05/04 02:47:30;;;;;;;;;;;;;;;11.94;54.69;100776.84;4996217;28;6895;-75
2022/05/04 02:49:56;;;;;;;;;;;;;;;11.92;54.17;100783.59;5004079;28;7936;-75
2022/05/04 02:52:22;;;;;;;;;;;;;;;11.88;54.53;100781.66;5004258;28;6791;-76
2022/05/04 02:54:48;;;;;;;;;;;;;;;11.81;54.46;100781.38;5003738;28;6879;-76
2022/05/04 02:57:13;;;;;;;;;;;;;;;11.76;54.49;100777.69;5000920;28;6824;-76
2022/05/04 02:59:39;;;;;;;;;;;;;;;11.72;54.28;100778.34;5002687;28;6874;-76
2022/05/04 03:04:49;;;;;;;;;;;;;;;11.63;54.42;100776.19;5005138;28;6895;-76
2022/05/04 03:07:14;;;;;;;;;;;;;;;11.60;54.51;100780.31;5001750;28;6930;-76
2022/05/04 03:09:40;;;;;;;;;;;;;;;11.57;54.38;100780.16;5010119;28;6886;-76
2022/05/04 03:12:06;;;;;;;;;;;;;;;11.54;54.51;100775.78;5000728;28;6799;-76
2022/05/04 03:14:32;;;;;;;;;;;;;;;11.50;54.73;100776.41;5004334;28;6867;-76
2022/05/04 03:16:58;;;;;;;;;;;;;;;11.48;54.51;100776.31;4986558;28;6829;-76
2022/05/04 03:19:25;;;;;;;;;;;;;;;11.46;54.60;100780.50;5000476;28;6792;-76
2022/05/04 03:21:52;;;;;;;;;;;;;;;11.43;54.36;100782.03;5001973;28;7003;-76
2022/05/04 03:24:18;;;;;;;;;;;;;;;11.41;54.83;100775.94;5006182;28;6792;-76
2022/05/04 03:26:44;;;;;;;;;;;;;;;11.39;55.06;100775.84;4999900;28;6879;-76
2022/05/04 03:29:10;;;;;;;;;;;;;;;11.37;54.67;100775.78;4988366;28;7426;-76
2022/05/04 03:31:37;;;;;;;;;;;;;;;11.35;54.68;100776.50;4998755;28;6875;-76
2022/05/04 03:34:03;;;;;;;;;;;;;;;11.32;54.95;100776.38;5001842;28;7062;-76
2022/05/04 03:36:30;;;;;;;;;;;;;;;11.29;54.96;100769.38;5004087;28;7166;-76
2022/05/04 03:38:56;;;;;;;;;;;;;;;11.25;54.88;100776.03;5002956;28;6804;-76
2022/05/04 03:41:23;;;;;;;;;;;;;;;11.23;54.49;100772.53;4985091;28;6800;-76
2022/05/04 03:43:48;;;;;;;;;;;;;;;11.21;55.21;100770.69;5003750;28;8001;-76
2022/05/04 03:46:19;;;;;;;;;;;;;;;11.18;55.17;100768.81;5005046;28;7003;-76
2022/05/04 03:48:49;;;;;;;;;;;;;;;11.17;55.04;100774.75;4997912;28;6872;-76
2022/05/04 03:51:18;;;;;;;;;;;;;;;11.18;54.63;100771.38;4976297;28;7047;-76
2022/05/04 03:53:45;;;;;;;;;;;;;;;11.17;55.19;100774.75;5005012;28;6911;-76
2022/05/04 03:56:11;;;;;;;;;;;;;;;11.14;55.03;100778.84;4998818;28;6807;-76
2022/05/04 03:58:37;;;;;;;;;;;;;;;11.12;54.67;100778.78;5003306;28;7129;-76
2022/05/04 04:01:04;;;;;;;;;;;;;;;11.08;55.01;100780.31;4981999;28;6796;-76
2022/05/04 04:03:31;;;;;;;;;;;;;;;11.07;55.22;100782.78;5001184;28;6804;-76
2022/05/04 04:05:57;;;;;;;;;;;;;;;11.04;54.94;100783.50;4998286;28;7160;-76
2022/05/04 04:08:23;;;;;;;;;;;;;;;11.04;54.68;100785.19;4984982;28;6968;-76
2022/05/04 04:10:49;;;;;;;;;;;;;;;11.01;55.06;100782.47;4992803;28;6820;-76
2022/05/04 04:13:15;;;;;;;;;;;;;;;10.98;55.39;100786.63;4983780;28;7271;-76
2022/05/04 04:15:41;;;;;;;;;;;;;;;10.99;55.61;100774.69;5002330;28;7003;-76
2022/05/04 04:18:08;;;;;;;;;;;;;;;10.97;55.62;100784.88;4999121;28;7137;-76
2022/05/04 04:23:20;;;;;;;;;;;;;;;10.98;55.68;100775.50;4986653;28;7364;-76
2022/05/04 04:25:46;;;;;;;;;;;;;;;11.00;55.30;100785.81;4984419;28;6780;-76
2022/05/04 04:28:11;;;;;;;;;;;;;;;11.00;55.33;100780.69;5002836;28;7824;-76
2022/05/04 04:30:38;;;;;;;;;;;;;;;11.01;55.62;100780.78;5002966;28;6788;-76
2022/05/04 04:33:08;;;;;;;;;;;;;;;11.05;55.46;100784.41;4992029;28;6808;-76
2022/05/04 04:35:34;;;;;;;;;;;;;;;11.08;55.71;100788.00;4976431;28;6788;-76
2022/05/04 04:38:01;;;;;;;;;;;;;;;11.10;55.59;100781.28;5003526;28;6792;-76
2022/05/04 04:40:26;;;;;;;;;;;;;;;11.13;55.48;100778.00;4999186;28;7023;-76
2022/05/04 04:42:52;;;;;;;;;;;;;;;11.18;55.53;100783.34;4998323;28;7591;-76
2022/05/04 04:45:18;;;;;;;;;;;;;;;11.24;55.80;100787.13;5000148;28;7248;-76
2022/05/04 04:47:48;;;;;;;;;;;;;;;11.31;55.98;100787.44;5000094;28;6787;-76
2022/05/04 04:50:14;;;;;;;;;;;;;;;11.37;56.01;100793.75;4998747;28;7011;-75
2022/05/04 04:52:41;;;;;;;;;;;;;;;11.45;56.07;100794.13;5004245;28;7042;-75
2022/05/04 04:55:07;;;;;;;;;;;;;;;11.56;56.68;100796.38;4997959;28;7070;-75
2022/05/04 04:57:33;;;;;;;;;;;;;;;11.67;56.60;100787.50;5001009;28;6796;-75
2022/05/04 04:59:59;;;;;;;;;;;;;;;11.81;56.45;100801.94;5004154;28;6947;-75
2022/05/04 05:02:25;;;;;;;;;;;;;;;11.94;56.44;100797.38;4984908;28;6959;-75
2022/05/04 05:04:51;;;;;;;;;;;;;;;12.07;56.65;100794.66;5001456;28;6788;-75
2022/05/04 05:07:17;;;;;;;;;;;;;;;12.20;56.47;100801.22;4999180;28;7155;-75
2022/05/04 05:09:43;;;;;;;;;;;;;;;12.33;56.09;100797.56;5001316;28;6990;-75
2022/05/04 05:12:09;;;;;;;;;;;;;;;12.48;56.37;100801.69;5003844;28;7728;-75
2022/05/04 05:17:19;;;;;;;;;;;;;;;12.76;56.23;100792.66;4992128;28;6955;-75
2022/05/04 05:19:44;;;;;;;;;;;;;;;12.92;56.29;100802.81;4986481;28;6787;-76
2022/05/04 05:22:10;;;;;;;;;;;;;;;13.08;55.72;100803.50;4996151;28;6795;-76
2022/05/04 05:24:36;;;;;;;;;;;;;;;13.22;55.59;100795.50;4999347;28;7963;-76
2022/05/04 05:27:01;;;;;;;;;;;;;;;13.35;55.36;100795.22;5001592;28;6895;-76
2022/05/04 05:29:27;;;;;;;;;;;;;;;13.46;54.80;100796.59;5008165;28;6947;-76
2022/05/04 05:31:53;;;;;;;;;;;;;;;13.61;54.55;100803.19;5007090;28;6896;-76
2022/05/04 05:34:18;;;;;;;;;;;;;;;13.74;54.49;100809.75;5003141;28;6899;-76
2022/05/04 05:36:44;;;;;;;;;;;;;;;13.87;53.49;100800.81;5002987;28;6823;-76
2022/05/04 05:39:10;;;;;;;;;;;;;;;13.96;53.83;100801.19;5001928;28;8234;-76
2022/05/04 05:41:36;;;;;;;;;;;;;;;14.02;52.77;100800.56;5003107;28;7418;-76
2022/05/04 05:44:02;;;;;;;;;;;;;;;14.03;51.71;100799.75;4988585;28;6925;-76
2022/05/04 05:46:28;;;;;;;;;;;;;;;14.00;51.92;100795.38;5006010;28;6780;-76
2022/05/04 05:48:54;;;;;;;;;;;;;;;13.97;51.79;100802.09;4983032;28;6962;-76
2022/05/04 05:51:19;;;;;;;;;;;;;;;13.93;50.98;100798.50;4999991;28;6870;-76
2022/05/04 05:53:45;;;;;;;;;;;;;;;13.93;51.54;100795.03;4997419;28;6839;-77
2022/05/04 05:56:11;;;;;;;;;;;;;;;13.93;50.78;100795.94;5003979;28;7070;-77
2022/05/04 05:58:36;;;;;;;;;;;;;;;13.95;50.88;100799.44;4987005;28;6776;-77
2022/05/04 06:01:02;;;;;;;;;;;;;;;13.99;51.51;100798.75;5003610;28;6784;-77
2022/05/04 06:03:29;;;;;;;;;;;;;;;14.03;50.64;100800.63;5006409;28;6780;-77
2022/05/04 06:05:54;;;;;;;;;;;;;;;14.10;50.25;100798.28;5002976;28;6808;-77
2022/05/04 06:08:20;;;;;;;;;;;;;;;14.15;50.75;100800.25;5006793;28;6795;-77
2022/05/04 06:10:46;;;;;;;;;;;;;;;14.23;50.01;100805.72;5005200;28;6811;-77
2022/05/04 06:13:11;;;;;;;;;;;;;;;14.32;50.07;100801.72;5006765;28;6787;-77
2022/05/04 06:15:38;;;;;;;;;;;;;;;14.42;50.37;100796.13;5000908;28;6791;-76
2022/05/04 06:18:04;;;;;;;;;;;;;;;14.53;49.38;100799.97;4993571;28;6839;-77
2022/05/04 06:20:31;;;;;;;;;;;;;;;14.65;49.11;100798.69;5002347;28;6981;-77
2022/05/04 06:22:57;;;;;;;;;;;;;;;14.75;49.27;100800.81;4997796;28;6800;-77
2022/05/04 06:25:23;;;;;;;;;;;;;;;14.86;49.24;100801.22;5003482;28;7317;-77
2022/05/04 06:27:49;;;;;;;;;;;;;;;14.96;48.88;100805.00;5007114;28;7172;-77
2022/05/04 06:35:43;;;;;;;;;;;;;;;15.24;48.20;100804.31;5000840;28;7082;-77
2022/05/04 06:38:10;;;;;;;;;;;;;;;15.33;48.38;100806.31;5016836;28;7259;-77
2022/05/04 06:40:37;;;;;;;;;;;;;;;15.46;48.15;100804.19;5000396;28;6807;-77
2022/05/04 06:43:03;;;;;;;;;;;;;;;15.59;47.90;100803.78;4996113;28;7144;-77
2022/05/04 06:45:29;;;;;;;;;;;;;;;15.71;47.93;100800.72;4984782;28;7377;-76
2022/05/04 06:47:55;;;;;;;;;;;;;;;15.80;47.34;100794.97;5004729;28;6875;-76
2022/05/04 06:50:21;;;;;;;;;;;;;;;15.87;47.71;100803.78;4995146;28;6884;-77
2022/05/04 06:52:46;;;;;;;;;;;;;;;15.91;47.13;100801.41;5004409;28;7010;-77
2022/05/04 06:55:12;;;;;;;;;;;;;;;15.94;47.12;100804.09;5017206;28;7510;-77
2022/05/04 06:57:38;;;;;;;;;;;;;;;15.90;46.66;100801.34;5004324;28;6787;-77
2022/05/04 07:00:06;;;;;;;;;;;;;;;15.88;46.39;100801.28;4995526;28;7026;-77
2022/05/04 07:02:33;;;;;;;;;;;;;;;15.92;47.16;100803.16;4978402;28;7466;-76
2022/05/04 07:05:00;;;;;;;;;;;;;;;15.99;47.02;100806.84;4984746;28;7058;-76
2022/05/04 07:07:25;;;;;;;;;;;;;;;16.01;46.18;100802.59;4996233;28;6958;-77
2022/05/04 07:09:51;;;;;;;;;;;;;;;16.01;45.90;100799.09;4974957;28;6967;-77
2022/05/04 07:12:17;;;;;;;;;;;;;;;15.99;46.58;100808.53;5015542;28;7841;-76
2022/05/04 07:14:43;;;;;;;;;;;;;;;15.94;46.32;100817.03;4999044;28;6887;-76
2022/05/04 07:17:08;;;;;;;;;;;;;;;15.90;46.58;100820.31;5004371;28;6819;-76
2022/05/04 07:19:34;;;;;;;;;;;;;;;15.88;46.23;100824.53;4978734;28;7194;-76
2022/05/04 07:22:00;;;;;;;;;;;;;;;15.89;46.29;100818.53;5001595;28;6879;-76
2022/05/04 07:24:26;;;;;;;;;;;;;;;15.91;46.45;100816.03;5005895;28;7244;-77
2022/05/04 07:26:51;;;;;;;;;;;;;;;15.96;46.63;100811.88;4999683;28;6803;-77
2022/05/04 07:29:17;;;;;;;;;;;;;;;16.05;46.92;100816.50;4997572;28;6811;-77
2022/05/04 07:31:44;;;;;;;;;;;;;;;16.10;46.14;100804.56;4997226;28;6787;-77
2022/05/04 07:34:11;;;;;;;;;;;;;;;16.15;46.74;100813.38;5003160;28;6812;-77
2022/05/04 07:36:37;;;;;;;;;;;;;;;16.25;46.92;100806.75;5013008;28;7062;-77
2022/05/04 07:39:03;;;;;;;;;;;;;;;16.37;46.44;100807.16;5004029;28;6812;-77
2022/05/04 07:44:12;;;;;;;;;;;;;;;16.59;46.25;100812.97;5001848;28;6900;-76
2022/05/04 07:46:38;;;;;;;;;;;;;;;16.68;46.12;100809.78;5001768;28;7085;-77
2022/05/04 07:49:05;;;;;;;;;;;;;;;16.79;46.31;100813.53;5003458;28;6966;-76
2022/05/04 07:51:31;;;;;;;;;;;;;;;16.92;46.20;100812.19;4998865;28;6812;-76
2022/05/04 07:53:56;;;;;;;;;;;;;;;17.03;45.52;100804.78;4983805;28;6882;-76
2022/05/04 07:56:22;;;;;;;;;;;;;;;17.11;45.28;100811.88;5015631;28;6804;-76
2022/05/04 07:58:47;;;;;;;;;;;;;;;17.14;45.18;100817.13;5001226;28;6780;-77
2022/05/04 08:06:42;;;;;;;;;;;;;;;17.21;45.21;100816.47;5004066;28;6896;-77
2022/05/04 08:09:07;;;;;;;;;;;;;;;17.35;45.78;100819.44;5004953;28;7036;-77
2022/05/04 08:11:33;;;;;;;;;;;;;;;17.55;45.38;100822.53;4964442;28;7207;-77
2022/05/04 08:13:59;;;;;;;;;;;;;;;17.73;44.72;100818.69;5017607;28;6783;-77
2022/05/04 08:16:25;;;;;;;;;;;;;;;17.92;44.86;100820.03;4986827;28;6796;-77
2022/05/04 08:18:50;;;;;;;;;;;;;;;18.16;44.62;100817.19;5000682;28;6799;-77
2022/05/04 08:21:16;;;;;;;;;;;;;;;18.42;43.96;100810.81;5002585;28;6807;-76
2022/05/04 08:23:42;;;;;;;;;;;;;;;18.62;44.02;100813.84;4994423;28;6796;-77
2022/05/04 08:26:08;;;;;;;;;;;;;;;18.77;43.15;100813.28;4998545;28;6999;-77
2022/05/04 08:28:33;;;;;;;;;;;;;;;18.93;43.47;100819.69;5001732;28;6803;-77
2022/05/04 08:30:59;;;;;;;;;;;;;;;19.12;42.67;100815.75;5013368;28;7157;-77
2022/05/04 08:33:25;;;;;;;;;;;;;;;19.34;42.40;100820.50;5001545;28;6787;-77
2022/05/04 08:35:51;;;;;;;;;;;;;;;19.49;42.50;100825.94;5000491;28;6815;-77
2022/05/04 08:38:16;;;;;;;;;;;;;;;19.52;41.48;100820.81;4998957;28;6795;-77
2022/05/04 08:40:42;;;;;;;;;;;;;;;19.43;41.53;100824.13;4996806;28;6788;-77
2022/05/04 08:43:09;;;;;;;;;;;;;;;19.36;41.30;100823.97;4995109;28;8712;-76
2022/05/04 08:45:40;;;;;;;;;;;;;;;19.32;41.45;100823.06;4999896;28;7346;-77
2022/05/04 08:48:09;;;;;;;;;;;;;;;19.35;41.56;100825.69;4987089;28;6925;-77
2022/05/04 08:50:39;;;;;;;;;;;;;;;19.45;41.66;100826.75;5001418;28;6808;-77
2022/05/04 08:53:07;;;;;;;;;;;;;;;19.67;41.54;100819.31;4999013;28;6911;-77
2022/05/04 08:55:38;;;;;;;;;;;;;;;20.01;41.46;100821.63;5002954;28;6812;-77
2022/05/04 08:58:03;;;;;;;;;;;;;;;20.51;41.18;100811.09;5001075;28;6823;-77
2022/05/04 09:00:29;;;;;;;;;;;;;;;21.11;40.28;100815.31;4980880;28;6883;-77
2022/05/04 09:02:55;;;;;;;;;;;;;;;21.73;39.82;100802.94;5001755;28;6902;-77
2022/05/04 09:05:29;;;;;;;;;;;;;;;22.27;38.97;100799.81;4985229;28;6978;-77
2022/05/04 09:07:57;;;;;;;;;;;;;;;22.79;38.47;100802.69;4999316;28;6828;-77
2022/05/04 09:10:27;;;;;;;;;;;;;;;23.36;37.73;100797.63;5003211;28;7264;-77
2022/05/04 09:12:59;;;;;;;;;;;;;;;23.82;37.59;100806.38;4997947;28;6820;-77
2022/05/04 09:15:30;;;;;;;;;;;;;;;24.26;36.87;100800.25;4996828;28;7038;-77
2022/05/04 09:18:16;;;;;;;;;;;;;;;24.71;36.32;100793.09;4954487;28;6989;-77
2022/05/04 09:20:49;;;;;;;;;;;;;;;25.00;35.14;100792.13;4996284;28;7412;-74
2022/05/04 09:23:22;;;;;;;;;;;;;;;25.09;34.29;100787.66;4994989;28;6799;-74
2022/05/04 09:25:50;;;;;;;;;;;;;;;25.09;34.34;100785.06;4993783;28;6796;-74
2022/05/04 09:28:16;;;;;;;;;;;;;;;25.05;34.20;100774.59;4996697;28;6887;-74
2022/05/04 09:31:00;;;;;;;;;;;;;;;25.05;33.80;100780.72;4995012;28;6886;-74
2022/05/04 09:33:32;;;;;;;;;;;;;;;25.10;33.75;100781.53;4996851;28;6828;-74
2022/05/04 09:36:00;;;;;;;;;;;;;;;25.10;32.94;100780.69;4992568;28;7018;-74
2022/05/04 09:46:54;;;;;;;;;;;;;;;25.69;32.50;100782.00;4994513;28;6896;-74
2022/05/04 09:49:27;;;;;;;;;;;;;;;25.88;32.18;100775.75;5001755;28;6792;-74
2022/05/04 09:51:53;;;;;;;;;;;;;;;25.97;31.89;100776.50;4999260;28;7117;-75
2022/05/04 09:54:28;;;;;;;;;;;;;;;26.18;32.16;100764.91;4997308;28;6792;-75
2022/05/04 09:56:59;;;;;;;;;;;;;;;26.62;31.97;100770.53;5000162;28;7046;-75
2022/05/04 09:59:29;;;;;;;;;;;;;;;27.16;31.44;100756.66;4993073;28;6807;-75
2022/05/04 10:01:58;;;;;;;;;;;;;;;27.86;31.30;100757.28;4994181;28;6824;-75
2022/05/04 10:04:26;;;;;;;;;;;;;;;28.53;30.36;100753.38;4999627;28;6938;-75
2022/05/04 10:06:53;;;;;;;;;;;;;;;29.07;30.18;100753.94;4992629;28;6808;-75
2022/05/04 10:09:21;;;;;;;;;;;;;;;29.58;29.57;100749.22;4997669;28;7149;-75
2022/05/04 10:11:56;;;;;;;;;;;;;;;29.84;28.06;100751.16;4994005;28;6800;-75
2022/05/04 10:14:27;;;;;;;;;;;;;;;29.83;28.33;100748.53;4983165;28;7003;-75
2022/05/04 10:17:14;;;;;;;;;;;;;;;29.49;27.93;100748.53;4998484;28;6891;-75
2022/05/04 10:20:13;;;;;;;;;;;;;;;29.05;28.45;100754.00;5002425;28;6867;-75
2022/05/04 10:22:52;;;;;;;;;;;;;;;28.81;28.40;100752.75;5005841;28;6819;-75
2022/05/04 10:25:18;;;;;;;;;;;;;;;28.65;27.75;100747.81;5003670;28;6908;-75
2022/05/04 10:27:47;;;;;;;;;;;;;;;28.52;27.79;100746.34;5003926;28;6808;-75
2022/05/04 10:30:31;;;;;;;;;;;;;;;28.38;28.09;100739.59;5002573;28;7138;-75
2022/05/04 10:33:08;;;;;;;;;;;;;;;28.17;27.85;100740.00;5012205;28;6912;-75
2022/05/04 10:35:50;;;;;;;;;;;;;;;28.16;27.89;100743.53;5004904;28;6816;-75
2022/05/04 10:38:28;;;;;;;;;;;;;;;28.38;27.77;100747.50;4999586;28;7056;-75
2022/05/04 10:40:56;;;;;;;;;;;;;;;28.48;27.53;100742.03;5003552;28;6833;-75
2022/05/04 10:43:36;;;;;;;;;;;;;;;28.63;27.76;100744.34;5000785;28;6816;-75
2022/05/04 10:46:30;;;;;;;;;;;;;;;28.82;27.96;100749.22;5002527;28;7173;-75
2022/05/04 10:48:59;;;;;;;;;;;;;;;29.20;27.54;100744.84;4997545;28;7199;-75
2022/05/04 10:51:35;;;;;;;;;;;;;;;29.70;27.54;100734.81;5006038;28;6963;-75
2022/05/04 10:54:07;;;;;;;;;;;;;;;30.30;26.59;100727.88;5001936;28;6900;-75
2022/05/04 10:56:47;;;;;;;;;;;;;;;31.02;25.77;100731.88;5004129;28;7800;-75
2022/05/04 10:59:31;;;;;;;;;;;;;;;31.50;25.32;100731.25;5004296;28;6820;-75
2022/05/04 11:02:08;;;;;;;;;;;;;;;31.83;25.41;100729.22;5003378;28;6887;-75
2022/05/04 11:04:35;;;;;;;;;;;;;;;32.28;24.98;100724.03;5003727;28;6900;-75
2022/05/04 11:07:05;;;;;;;;;;;;;;;32.58;24.22;100714.97;5004125;28;6835;-75
2022/05/04 11:09:40;;;;;;;;;;;;;;;32.54;23.66;100725.69;5000620;28;6795;-75
2022/05/04 11:12:10;;;;;;;;;;;;;;;32.30;23.82;100722.16;5001089;28;6823;-75
2022/05/04 11:14:36;;;;;;;;;;;;;;;32.14;23.23;100719.25;5005472;28;6968;-75
2022/05/04 11:17:13;;;;;;;;;;;;;;;31.83;23.06;100721.25;4999322;28;7002;-75
2022/05/04 11:19:47;;;;;;;;;;;;;;;31.67;22.94;100722.69;4987912;28;6792;-75
2022/05/04 11:22:15;;;;;;;;;;;;;;;31.48;23.35;100714.50;4999191;28;6799;-75
2022/05/04 11:24:43;;;;;;;;;;;;;;;31.36;22.97;100719.31;4992295;28;6819;-75
2022/05/04 11:27:09;;;;;;;;;;;;;;;31.53;23.77;100720.53;5001624;28;6891;-75
2022/05/04 11:29:34;;;;;;;;;;;;;;;31.85;23.66;100710.59;4971569;28;6995;-75
2022/05/04 11:32:05;;;;;;;;;;;;;;;32.13;23.46;100702.50;4998769;28;6887;-75
2022/05/04 11:34:37;;;;;;;;;;;;;;;32.42;23.06;100705.84;5003966;28;7389;-75
2022/05/04 11:37:07;;;;;;;;;;;;;;;32.53;22.57;100702.75;4974848;28;7011;-75
2022/05/04 11:39:33;;;;;;;;;;;;;;;32.70;22.75;100703.88;5002587;28;6808;-75
2022/05/04 11:42:01;;;;;;;;;;;;;;;32.84;21.96;100698.00;4976411;28;6984;-75
2022/05/04 11:44:29;;;;;;;;;;;;;;;32.76;21.53;100697.44;5003422;28;7262;-75
2022/05/04 11:46:58;;;;;;;;;;;;;;;32.66;21.52;100696.97;5002469;28;6804;-75
2022/05/04 11:49:28;;;;;;;;;;;;;;;32.42;21.15;100683.75;5001679;28;8815;-75
2022/05/04 11:51:56;;;;;;;;;;;;;;;32.24;21.20;100695.91;4990738;28;6823;-75
2022/05/04 11:54:23;;;;;;;;;;;;;;;32.06;21.66;100686.84;5003185;28;7033;-75
2022/05/04 11:56:49;;;;;;;;;;;;;;;31.92;21.36;100690.91;4992438;28;6954;-75
2022/05/04 11:59:16;;;;;;;;;;;;;;;31.98;21.32;100685.38;4975613;28;7015;-75
2022/05/04 12:01:43;;;;;;;;;;;;;;;31.98;21.70;100693.34;4994425;28;6804;-75
2022/05/04 12:04:12;;;;;;;;;;;;;;;31.82;21.27;100684.22;4996294;28;7350;-75
2022/05/04 12:06:39;;;;;;;;;;;;;;;31.72;21.23;100683.63;4976409;28;7231;-75
2022/05/04 12:09:05;;;;;;;;;;;;;;;31.90;21.58;100682.16;5001676;28;7230;-75
2022/05/04 12:11:32;;;;;;;;;;;;;;;32.02;20.96;100685.25;4996887;28;6815;-75
2022/05/04 12:13:59;;;;;;;;;;;;;;;32.03;20.51;100682.56;5001998;28;6828;-75
2022/05/04 12:16:26;;;;;;;;;;;;;;;31.89;20.61;100675.13;4977975;28;6998;-75
2022/05/04 12:18:51;;;;;;;;;;;;;;;31.81;20.78;100682.50;4999068;28;7106;-76
2022/05/04 12:21:20;;;;;;;;;;;;;;;31.86;20.74;100670.81;4984263;28;6839;-74
2022/05/04 12:23:53;;;;;;;;;;;;;;;32.00;21.00;100680.88;5001594;28;7134;-75
2022/05/04 12:26:21;;;;;;;;;;;;;;;32.27;20.16;100675.47;4998871;28;6974;-75
2022/05/04 12:34:25;;;;;;;;;;;;;;;33.18;19.79;100671.88;5001019;28;6820;-75
2022/05/04 12:36:51;;;;;;;;;;;;;;;33.20;20.04;100667.34;5004507;28;6864;-75
2022/05/04 12:39:21;;;;;;;;;;;;;;;33.21;19.79;100671.72;4983606;28;7249;-75
2022/05/04 12:41:48;;;;;;;;;;;;;;;33.28;19.42;100665.22;4994133;28;7079;-75
2022/05/04 12:44:16;;;;;;;;;;;;;;;33.46;19.38;100660.94;5002221;28;6818;-75
2022/05/04 12:46:54;;;;;;;;;;;;;;;33.67;19.13;100663.59;5001554;28;6800;-75
2022/05/04 12:49:24;;;;;;;;;;;;;;;33.89;18.74;100660.78;5016766;28;6896;-75
2022/05/04 12:51:51;;;;;;;;;;;;;;;33.99;18.34;100652.38;4982873;28;6815;-75
2022/05/04 12:54:17;;;;;;;;;;;;;;;33.80;18.18;100658.53;4982597;28;7013;-75
2022/05/04 12:56:46;;;;;;;;;;;;;;;33.24;18.13;100655.69;4987757;28;7267;-75
2022/05/04 12:59:17;;;;;;;;;;;;;;;32.74;18.44;100668.34;5000049;28;6895;-75
2022/05/04 13:01:44;;;;;;;;;;;;;;;32.63;18.83;100665.25;4981464;28;6986;-75
2022/05/04 13:04:09;;;;;;;;;;;;;;;32.58;19.03;100669.91;5000638;28;6888;-75
2022/05/04 13:06:35;;;;;;;;;;;;;;;32.51;19.18;100667.47;5001997;28;6868;-75
2022/05/04 13:09:02;;;;;;;;;;;;;;;32.49;19.04;100664.03;5014244;28;7143;-76
2022/05/04 13:11:30;;;;;;;;;;;;;;;32.45;18.93;100651.81;4997842;28;6812;-75
2022/05/04 13:13:56;;;;;;;;;;;;;;;32.44;18.77;100655.38;4998324;28;6828;-76
2022/05/04 13:16:21;;;;;;;;;;;;;;;32.38;18.54;100655.63;4999152;28;7881;-75
2022/05/04 13:18:47;;;;;;;;;;;;;;;32.36;18.65;100658.34;5001350;28;7071;-75
2022/05/04 13:21:13;;;;;;;;;;;;;;;32.31;18.19;100656.75;4995447;28;7145;-75
2022/05/04 13:23:40;;;;;;;;;;;;;;;32.25;18.61;100650.75;5001332;28;6875;-75
2022/05/04 13:26:08;;;;;;;;;;;;;;;32.23;18.08;100649.97;4986650;28;6886;-75
2022/05/04 13:28:33;;;;;;;;;;;;;;;32.22;18.45;100650.91;4977124;28;7016;-75
2022/05/04 13:31:00;;;;;;;;;;;;;;;32.24;18.42;100650.84;4982342;28;6980;-75